Time;durP1;ratioP1;P1;durP2;ratioP2;P2;SDS_P1;SDS_P2;PMS_P1;PMS_P2;Temp;Humidity;BMP_temperature;BMP_pressure;BME280_temperature;BME280_humidity;BME280_pressure;Samples;Min_cycle;Max_cycle;Signal;HPM_P1;HPM_P2
2023/03/23 00:02:28;;;;;;;0.20;0.20;;;;;;;16.93;71.17;100185.94;5049145;28;20497;-70
2023/03/23 00:04:54;;;;;;;;;;;;;;;17.09;69.66;100194.78;5045405;28;20041;-69
2023/03/23 00:07:27;;;;;;;0.30;0.30;;;;;;;17.72;67.56;100187.44;5047230;28;19900;-70
2023/03/23 00:09:55;;;;;;;0.20;0.20;;;;;;;17.09;68.30;100176.59;5044608;28;20123;-70
2023/03/23 00:12:32;;;;;;;0.30;0.30;;;;;;;17.13;67.97;100196.63;5049115;28;20059;-70
2023/03/23 00:15:05;;;;;;;0.20;0.20;;;;;;;17.60;66.72;100197.88;5038650;28;20120;-70
2023/03/23 00:17:32;;;;;;;0.30;0.30;;;;;;;17.17;67.97;100202.31;5047717;28;20040;-69
2023/03/23 00:20:00;;;;;;;0.10;0.10;;;;;;;17.03;69.27;100191.28;5048178;28;20054;-69
2023/03/23 00:22:27;;;;;;;0.10;0.10;;;;;;;17.69;66.51;100163.56;5043530;28;20138;-69
2023/03/23 00:24:53;;;;;;;0.20;0.20;;;;;;;17.73;66.62;100154.53;5042715;28;20033;-70
2023/03/23 00:27:21;;;;;;;0.10;0.10;;;;;;;17.26;66.41;100147.09;5042233;28;20090;-70
2023/03/23 00:29:47;;;;;;;0.15;0.15;;;;;;;17.35;66.63;100123.66;5049118;28;20522;-70
2023/03/23 00:32:14;;;;;;;0.20;0.20;;;;;;;17.49;66.84;100140.91;5048629;28;20037;-70
2023/03/23 00:34:42;;;;;;;0.20;0.20;;;;;;;17.59;66.21;100126.44;5044641;28;20546;-70
2023/03/23 00:37:08;;;;;;;0.10;0.10;;;;;;;17.20;68.10;100142.00;5049231;28;20500;-70
2023/03/23 00:39:36;;;;;;;0.17;0.17;;;;;;;17.12;68.00;100148.06;5048602;28;20041;-71
2023/03/23 00:42:03;;;;;;;0.20;0.20;;;;;;;17.30;67.26;100169.06;5048643;28;20041;-71
2023/03/23 00:44:30;;;;;;;0.20;0.20;;;;;;;16.87;67.21;100172.66;5048331;28;20029;-70
2023/03/23 00:46:56;;;;;;;0.17;0.17;;;;;;;17.22;64.54;100191.41;5048473;28;20443;-70
2023/03/23 00:49:24;;;;;;;0.20;0.20;;;;;;;17.39;63.39;100191.81;5048666;28;20091;-70
2023/03/23 00:51:50;;;;;;;0.10;0.10;;;;;;;17.71;62.88;100166.81;5048152;28;20421;-70
2023/03/23 00:54:16;;;;;;;0.20;0.20;;;;;;;17.76;63.03;100178.41;5053005;28;20052;-70
2023/03/23 00:56:41;;;;;;;0.20;0.20;;;;;;;17.73;63.47;100170.03;5046189;28;20086;-70
2023/03/23 00:59:07;;;;;;;0.10;0.10;;;;;;;17.61;63.59;100166.91;5046108;28;20052;-71
2023/03/23 01:01:32;;;;;;;0.20;0.20;;;;;;;17.72;63.02;100171.13;5052069;28;20052;-67
2023/03/23 01:04:03;;;;;;;0.10;0.10;;;;;;;17.66;63.07;100155.97;5051677;28;20021;-70
2023/03/23 01:06:30;;;;;;;0.20;0.20;;;;;;;18.52;61.16;100150.28;5048268;28;20033;-70
2023/03/23 01:08:57;;;;;;;0.10;0.10;;;;;;;17.33;64.68;100160.34;5046613;28;20040;-70
2023/03/23 01:11:23;;;;;;;0.20;0.20;;;;;;;18.13;63.09;100162.22;5051795;28;20040;-71
2023/03/23 01:13:48;;;;;;;0.10;0.10;;;;;;;17.40;64.79;100155.38;5052233;28;20025;-70
2023/03/23 01:16:14;;;;;;;0.20;0.20;;;;;;;17.54;63.48;100156.38;5053215;28;20530;-70
2023/03/23 01:18:40;;;;;;;0.10;0.10;;;;;;;17.63;63.72;100151.91;5052312;28;20037;-70
2023/03/23 01:21:10;;;;;;;0.10;0.10;;;;;;;17.97;63.60;100128.16;5033930;28;20060;-71
2023/03/23 01:23:35;;;;;;;0.10;0.10;;;;;;;18.16;62.29;100139.84;5045933;28;20313;-70
2023/03/23 01:26:21;;;;;;;0.20;0.20;;;;;;;18.88;59.86;100126.88;5052103;28;20485;-70
2023/03/23 01:28:47;;;;;;;0.20;0.20;;;;;;;18.15;62.64;100130.09;5049143;28;20100;-70
2023/03/23 01:31:15;;;;;;;0.17;0.17;;;;;;;19.13;58.89;100129.16;5040504;28;20151;-70
2023/03/23 01:33:42;;;;;;;0.20;0.20;;;;;;;18.77;60.19;100126.22;5051305;28;20033;-69
2023/03/23 01:36:20;;;;;;;0.17;0.17;;;;;;;18.38;61.24;100131.94;5052938;28;20056;-70
2023/03/23 01:38:47;;;;;;;0.20;0.20;;;;;;;18.21;61.00;100137.09;5051917;28;20052;-69
2023/03/23 01:41:14;;;;;;;0.10;0.10;;;;;;;17.40;64.27;100136.38;5051558;28;20393;-71
2023/03/23 01:43:54;;;;;;;0.20;0.20;;;;;;;18.14;62.46;100124.97;5051730;28;20396;-68
2023/03/23 01:46:22;;;;;;;0.10;0.10;;;;;;;17.93;62.35;100118.94;5052423;28;20055;-70
2023/03/23 01:48:49;;;;;;;0.20;0.20;;;;;;;17.63;63.15;100103.00;5045923;28;20577;-70
2023/03/23 01:51:17;;;;;;;0.20;0.20;;;;;;;18.62;60.79;100112.03;5051536;28;20041;-70
2023/03/23 01:53:50;;;;;;;0.17;0.17;;;;;;;18.16;62.08;100104.50;5051827;28;20043;-71
2023/03/23 01:56:24;;;;;;;0.20;0.20;;;;;;;18.81;59.30;100097.28;5051752;28;20041;-69
2023/03/23 01:58:51;;;;;;;0.20;0.20;;;;;;;18.07;61.47;100110.88;5038986;28;20029;-70
2023/03/23 02:01:16;;;;;;;0.30;0.30;;;;;;;18.76;58.97;100097.41;5048353;28;20045;-71
2023/03/23 02:03:45;;;;;;;0.10;0.10;;;;;;;19.05;57.36;100092.53;5048085;28;20075;-70
2023/03/23 02:06:11;;;;;;;0.17;0.17;;;;;;;18.29;60.05;100092.91;5050884;28;20041;-70
2023/03/23 02:08:38;;;;;;;0.20;0.20;;;;;;;18.57;59.79;100098.53;5051108;28;20087;-70
2023/03/23 02:11:22;;;;;;;0.20;0.20;;;;;;;18.52;59.60;100088.50;5051301;28;20397;-71
2023/03/23 02:13:49;;;;;;;0.10;0.10;;;;;;;18.82;58.20;100109.81;5045257;28;20052;-70
2023/03/23 02:16:43;;;;;;;0.13;0.13;;;;;;;18.38;58.79;100104.75;5051826;28;20047;-70
2023/03/23 02:19:36;;;;;;;0.17;0.17;;;;;;;18.70;58.03;100089.59;5047781;28;20124;-69
2023/03/23 02:22:38;;;;;;;0.20;0.20;;;;;;;18.89;57.79;100101.25;5051029;28;20496;-70
2023/03/23 02:25:15;;;;;;;0.20;0.20;;;;;;;18.93;57.94;100088.66;5050571;28;20063;-70
2023/03/23 02:27:59;;;;;;;0.20;0.20;;;;;;;17.32;62.59;100090.81;5050636;28;20128;-70
2023/03/23 02:30:47;;;;;;;0.20;0.20;;;;;;;18.50;59.64;100076.31;5050985;28;20037;-69
2023/03/23 02:33:21;;;;;;;0.30;0.30;;;;;;;19.39;56.95;100080.50;5050502;28;20053;-71
2023/03/23 02:35:53;;;;;;;0.10;0.10;;;;;;;19.22;56.68;100084.59;5039294;28;20041;-69
2023/03/23 02:39:02;;;;;;;0.13;0.13;;;;;;;18.90;58.29;100078.38;5046180;28;20533;-70
2023/03/23 02:41:33;;;;;;;0.10;0.10;;;;;;;19.23;57.10;100088.13;5051228;28;20045;-72
2023/03/23 02:44:01;;;;;;;0.20;0.20;;;;;;;18.37;60.09;100080.56;5044252;28;20427;-70
2023/03/23 02:46:28;;;;;;;0.20;0.20;;;;;;;18.30;59.09;100080.09;5044994;28;20064;-69
2023/03/23 02:48:56;;;;;;;0.10;0.10;;;;;;;18.59;58.99;100078.09;5037996;28;20413;-69
2023/03/23 02:51:23;;;;;;;0.10;0.10;;;;;;;18.74;58.77;100086.00;5050333;28;20511;-69
2023/03/23 02:53:51;;;;;;;0.20;0.20;;;;;;;17.98;61.01;100089.00;5050302;28;20064;-70
2023/03/23 02:56:18;;;;;;;0.10;0.10;;;;;;;18.33;59.35;100083.06;5050337;28;20044;-70
2023/03/23 02:58:44;;;;;;;0.20;0.20;;;;;;;17.98;60.91;100075.41;5043635;28;20033;-70
2023/03/23 03:01:36;;;;;;;0.20;0.20;;;;;;;18.82;58.28;100060.81;5050261;28;20517;-68
2023/03/23 03:04:15;;;;;;;0.10;0.10;;;;;;;18.31;60.11;100071.66;5050040;28;20053;-70
2023/03/23 03:07:02;;;;;;;0.20;0.20;;;;;;;18.98;58.18;100072.25;5049998;28;20560;-70
2023/03/23 03:09:50;;;;;;;0.10;0.10;;;;;;;18.06;60.64;100069.28;5049629;28;20033;-70
2023/03/23 03:12:36;;;;;;;0.20;0.20;;;;;;;19.03;58.51;100066.69;5049261;28;20086;-70
2023/03/23 03:15:25;;;;;;;0.25;0.25;;;;;;;18.60;58.91;100068.78;5044985;28;20065;-70
2023/03/23 03:18:03;;;;;;;0.22;0.22;;;;;;;18.33;60.18;100053.16;4968963;28;20597;-69
2023/03/23 03:20:32;;;;;;;0.10;0.10;;;;;;;17.49;63.06;100064.06;4968618;28;20046;-70
2023/03/23 03:22:59;;;;;;;0.10;0.10;;;;;;;18.41;59.92;100060.63;4968526;28;20042;-70
2023/03/23 03:25:27;;;;;;;0.20;0.20;;;;;;;17.69;62.65;100058.38;4969093;28;20045;-71
2023/03/23 03:27:55;;;;;;;0.20;0.20;;;;;;;18.00;61.10;100070.50;4968528;28;20046;-71
2023/03/23 03:30:28;;;;;;;0.20;0.20;;;;;;;18.42;59.84;100055.97;4968374;28;20068;-70
2023/03/23 03:32:54;;;;;;;0.20;0.20;;;;;;;18.62;59.32;100055.69;4962902;28;20043;-70
2023/03/23 03:35:23;;;;;;;0.10;0.10;;;;;;;18.34;60.22;100048.50;4964310;28;20038;-69
2023/03/23 03:37:48;;;;;;;0.20;0.20;;;;;;;18.43;59.83;100057.66;4968933;28;20026;-70
2023/03/23 03:40:16;;;;;;;0.20;0.20;;;;;;;18.15;61.99;100051.22;4968578;28;20038;-71
2023/03/23 03:42:44;;;;;;;0.20;0.20;;;;;;;18.56;59.48;100051.44;4945763;28;20179;-70
2023/03/23 03:45:13;;;;;;;0.10;0.10;;;;;;;17.66;62.01;100053.53;4962370;28;20050;-70
2023/03/23 03:47:39;;;;;;;0.10;0.10;;;;;;;17.99;61.47;100038.94;4968031;28;20046;-70
2023/03/23 03:50:05;;;;;;;0.20;0.20;;;;;;;18.08;61.54;100030.94;4968728;28;20081;-71
2023/03/23 03:52:31;;;;;;;0.20;0.20;;;;;;;18.23;60.71;100044.31;4968869;28;20038;-70
2023/03/23 03:54:57;;;;;;;0.17;0.17;;;;;;;18.04;61.67;100035.34;5007585;28;20033;-70
2023/03/23 03:57:22;;;;;;;0.20;0.20;;;;;;;19.08;58.08;100040.22;5049198;28;20029;-72
2023/03/23 03:59:48;;;;;;;0.20;0.20;;;;;;;18.54;59.70;100044.66;5049158;28;20075;-70
2023/03/23 04:02:16;;;;;;;0.20;0.20;;;;;;;18.54;59.69;100048.22;5049515;28;20037;-71
2023/03/23 04:04:43;;;;;;;0.20;0.20;;;;;;;17.88;62.37;100042.09;5043497;28;20029;-70
2023/03/23 04:07:10;;;;;;;0.25;0.25;;;;;;;18.26;60.56;100030.94;5043739;28;20021;-71
2023/03/23 04:09:36;;;;;;;0.10;0.10;;;;;;;18.21;60.60;100032.94;5048793;28;20033;-70
2023/03/23 04:12:02;;;;;;;0.15;0.15;;;;;;;17.81;60.89;100042.44;5048648;28;20527;-70
2023/03/23 04:14:28;;;;;;;0.17;0.17;;;;;;;17.45;62.07;100041.25;5045588;28;20037;-69
2023/03/23 04:16:56;;;;;;;0.10;0.10;;;;;;;18.31;60.19;100036.31;5043498;28;20041;-70
2023/03/23 04:19:23;;;;;;;0.20;0.20;;;;;;;17.36;63.18;100034.84;5045964;28;20033;-70
2023/03/23 04:21:48;;;;;;;0.20;0.20;;;;;;;18.04;60.74;100032.63;5048328;28;20047;-70
2023/03/23 04:24:15;;;;;;;0.20;0.20;;;;;;;17.63;61.56;100045.94;5049020;28;20409;-70
2023/03/23 04:26:41;;;;;;;0.20;0.20;;;;;;;17.73;62.31;100048.53;5048265;28;20057;-69
2023/03/23 04:29:08;;;;;;;0.10;0.10;;;;;;;18.01;60.59;100028.59;5048528;28;20119;-70
2023/03/23 04:31:34;;;;;;;0.20;0.20;;;;;;;17.91;61.28;100030.63;5048906;28;20039;-68
2023/03/23 04:34:01;;;;;;;0.20;0.20;;;;;;;17.48;63.25;100027.94;5047854;28;20076;-70
2023/03/23 04:36:28;;;;;;;0.10;0.10;;;;;;;17.68;62.31;100023.34;5048890;28;20119;-70
2023/03/23 04:38:55;;;;;;;0.20;0.20;;;;;;;17.03;64.95;100028.41;5048838;28;20463;-71
2023/03/23 04:41:22;;;;;;;0.20;0.20;;;;;;;17.41;64.18;100042.94;5048636;28;20167;-70
2023/03/23 04:43:53;;;;;;;0.20;0.20;;;;;;;16.75;66.18;100063.69;5042147;28;20036;-70
2023/03/23 04:46:19;;;;;;;0.10;0.10;;;;;;;16.77;66.73;100069.63;5048855;28;20028;-70
2023/03/23 04:48:48;;;;;;;0.13;0.13;;;;;;;16.99;68.25;100084.38;5048405;28;20041;-71
2023/03/23 04:51:13;;;;;;;0.10;0.10;;;;;;;14.49;76.79;100092.34;5048190;28;20037;-69
2023/03/23 04:53:39;;;;;;;0.20;0.20;;;;;;;15.01;74.99;100073.97;5042681;28;20044;-69
2023/03/23 04:56:04;;;;;;;0.25;0.25;;;;;;;15.48;72.59;100082.56;5044051;28;20038;-71
2023/03/23 04:58:33;;;;;;;0.20;0.20;;;;;;;14.62;75.07;100072.91;5047489;28;20063;-72
2023/03/23 05:01:00;;;;;;;0.13;0.13;;;;;;;14.45;76.70;100086.69;5047076;28;20054;-71
2023/03/23 05:03:26;;;;;;;0.20;0.20;;;;;;;14.72;76.39;100073.72;5048275;28;20029;-69
2023/03/23 05:05:53;;;;;;;0.30;0.30;;;;;;;14.71;79.29;100072.09;5047919;28;20120;-70
2023/03/23 05:08:24;;;;;;;0.30;0.30;;;;;;;13.86;82.29;100099.75;5048440;28;20527;-70
2023/03/23 05:10:50;;;;;;;;;;;;;;;13.47;86.20;100095.78;5042574;28;20041;-70
2023/03/23 05:13:15;;;;;;;0.20;0.20;;;;;;;13.20;85.28;100095.09;5048502;28;19911;-71
2023/03/23 05:15:41;;;;;;;0.20;0.20;;;;;;;13.41;86.14;100087.91;5047917;28;20029;-71
2023/03/23 05:18:06;;;;;;;0.30;0.30;;;;;;;13.92;82.15;100073.56;5048073;28;20051;-68
2023/03/23 05:20:33;;;;;;;0.20;0.20;;;;;;;12.89;88.72;100091.31;5042026;28;20116;-71
2023/03/23 05:22:59;;;;;;;0.30;0.30;;;;;;;13.48;86.05;100089.34;5048177;28;20037;-70
2023/03/23 05:25:24;;;;;;;0.20;0.20;;;;;;;13.91;86.32;100088.97;5048889;28;20148;-71
2023/03/23 05:27:52;;;;;;;0.17;0.17;;;;;;;14.71;81.59;100085.63;5048084;28;20065;-70
2023/03/23 05:30:19;;;;;;;0.30;0.30;;;;;;;15.12;78.79;100099.09;5047296;28;20124;-71
2023/03/23 05:32:50;;;;;;;0.30;0.30;;;;;;;15.20;79.09;100103.97;5047998;28;20036;-71
2023/03/23 05:35:17;;;;;;;0.20;0.20;;;;;;;14.79;78.77;100122.94;5047872;28;20087;-72
2023/03/23 05:37:43;;;;;;;0.20;0.20;;;;;;;16.08;76.20;100126.75;5042540;28;20028;-71
2023/03/23 05:40:11;;;;;;;0.20;0.20;;;;;;;15.60;76.52;100112.03;5050252;28;20025;-71
2023/03/23 05:42:39;;;;;;;0.20;0.20;;;;;;;15.91;75.95;100100.00;5051915;28;20044;-71
2023/03/23 05:45:06;;;;;;;0.30;0.30;;;;;;;15.06;79.02;100111.03;5051467;28;20281;-70
2023/03/23 05:47:31;;;;;;;0.25;0.25;;;;;;;14.06;83.86;100117.91;5050554;28;20029;-71
2023/03/23 05:49:57;;;;;;;0.30;0.30;;;;;;;14.74;81.93;100106.69;5047836;28;20032;-72
2023/03/23 05:52:24;;;;;;;0.22;0.22;;;;;;;15.39;79.43;100116.66;5053081;28;20399;-73
2023/03/23 05:54:49;;;;;;;0.22;0.22;;;;;;;15.51;77.45;100111.78;5045794;28;20033;-72
2023/03/23 05:57:15;;;;;;;0.10;0.10;;;;;;;15.55;77.49;100126.41;5051885;28;20114;-72
2023/03/23 05:59:40;;;;;;;0.20;0.20;;;;;;;15.58;76.99;100123.16;5045671;28;20120;-72
2023/03/23 06:02:06;;;;;;;0.20;0.20;;;;;;;15.44;77.53;100121.28;5052618;28;20033;-71
2023/03/23 06:04:33;;;;;;;0.30;0.30;;;;;;;16.37;74.41;100112.19;5052048;28;20044;-70
2023/03/23 06:07:02;;;;;;;0.25;0.25;;;;;;;16.05;74.67;100132.72;5051823;28;20051;-72
2023/03/23 06:09:27;;;;;;;0.20;0.20;;;;;;;16.45;73.63;100125.16;5045600;28;20033;-72
2023/03/23 06:11:53;;;;;;;0.20;0.20;;;;;;;16.59;73.15;100130.81;5051635;28;20060;-72
2023/03/23 06:14:18;;;;;;;0.20;0.20;;;;;;;16.13;74.02;100140.28;5050756;28;20055;-72
2023/03/23 06:16:44;;;;;;;0.20;0.20;;;;;;;16.54;73.32;100136.28;5039692;28;20431;-71
2023/03/23 06:19:10;;;;;;;0.30;0.30;;;;;;;16.57;73.84;100144.66;5052394;28;20021;-71
2023/03/23 06:21:36;;;;;;;0.20;0.20;;;;;;;16.28;74.42;100141.00;5051425;28;20043;-72
2023/03/23 06:24:03;;;;;;;0.30;0.30;;;;;;;15.82;76.61;100164.78;5051421;28;20063;-71
2023/03/23 06:26:34;;;;;;;0.20;0.20;;;;;;;15.99;75.53;100169.88;5051359;28;20056;-72
2023/03/23 06:29:00;;;;;;;0.20;0.20;;;;;;;16.09;75.46;100160.91;5045274;28;20034;-72
2023/03/23 06:31:27;;;;;;;0.28;0.28;;;;;;;16.10;74.97;100165.22;5051815;28;20443;-71
2023/03/23 06:33:53;;;;;;;0.20;0.20;;;;;;;15.64;75.39;100165.41;5048567;28;20042;-71
2023/03/23 06:36:19;;;;;;;0.30;0.30;;;;;;;16.07;74.21;100161.19;5050920;28;20404;-71
2023/03/23 06:38:44;;;;;;;0.30;0.30;;;;;;;15.63;75.60;100155.63;5046682;28;20409;-72
2023/03/23 06:41:11;;;;;;;0.20;0.20;;;;;;;15.47;73.68;100167.56;5045690;28;20050;-71
2023/03/23 06:43:39;;;;;;;0.30;0.30;;;;;;;15.61;73.35;100174.06;5048010;28;20041;-72
2023/03/23 06:46:08;;;;;;;0.30;0.30;;;;;;;15.77;74.08;100182.97;5051766;28;20041;-71
2023/03/23 06:48:33;;;;;;;0.20;0.20;;;;;;;15.65;73.34;100168.91;5050925;28;20040;-73
2023/03/23 06:50:58;;;;;;;0.32;0.32;;;;;;;16.15;72.16;100176.06;5043503;28;20397;-70
2023/03/23 06:53:24;;;;;;;0.20;0.20;;;;;;;15.76;72.98;100197.59;5039720;28;20500;-72
2023/03/23 06:55:50;;;;;;;0.20;0.20;;;;;;;15.60;73.43;100187.88;5051101;28;20021;-72
2023/03/23 06:58:15;;;;;;;0.20;0.20;;;;;;;15.61;74.26;100173.22;5050635;28;20087;-72
2023/03/23 07:00:41;;;;;;;0.35;0.35;;;;;;;15.87;71.98;100188.34;5047602;28;20501;-72
2023/03/23 07:03:08;;;;;;;0.30;0.30;;;;;;;15.41;73.48;100198.41;5052521;28;20082;-71
2023/03/23 07:05:35;;;;;;;0.20;0.20;;;;;;;15.74;73.40;100197.06;5055954;28;20033;-71
2023/03/23 07:08:01;;;;;;;0.20;0.20;;;;;;;15.36;74.03;100214.69;5057356;28;20488;-72
2023/03/23 07:10:27;;;;;;;0.40;0.40;;;;;;;16.49;71.29;100196.78;5057382;28;20089;-71
2023/03/23 07:12:52;;;;;;;0.20;0.20;;;;;;;15.82;73.01;100193.78;5058370;28;20045;-71
2023/03/23 07:15:18;;;;;;;0.30;0.30;;;;;;;15.92;72.73;100195.66;5059489;28;20086;-71
2023/03/23 07:17:43;;;;;;;0.30;0.30;;;;;;;15.81;73.47;100194.88;5047727;28;20038;-70
2023/03/23 07:20:09;;;;;;;0.30;0.30;;;;;;;16.00;73.19;100197.81;5049490;28;20106;-70
2023/03/23 07:22:35;;;;;;;0.20;0.20;;;;;;;16.42;72.37;100196.25;5043322;28;20824;-71
2023/03/23 07:25:01;;;;;;;0.20;0.20;;;;;;;16.67;71.71;100193.44;5054206;28;20017;-71
2023/03/23 07:27:27;;;;;;;0.20;0.20;;;;;;;16.49;72.08;100207.63;5033048;28;20033;-71
2023/03/23 07:29:52;;;;;;;0.10;0.10;;;;;;;15.96;74.03;100200.22;5051778;28;20370;-69
2023/03/23 07:32:18;;;;;;;0.10;0.10;;;;;;;17.02;70.77;100205.16;5046781;28;20052;-71
2023/03/23 07:34:43;;;;;;;0.20;0.20;;;;;;;17.16;69.84;100204.22;5047418;28;20032;-70
2023/03/23 07:37:09;;;;;;;0.20;0.20;;;;;;;16.27;73.29;100193.63;5049787;28;20025;-70
2023/03/23 07:39:35;;;;;;;0.30;0.30;;;;;;;16.61;72.55;100208.13;5038863;28;20425;-73
2023/03/23 07:42:00;;;;;;;0.20;0.20;;;;;;;16.91;71.79;100206.28;5045210;28;20033;-70
2023/03/23 07:44:26;;;;;;;0.28;0.28;;;;;;;17.25;68.92;100207.94;5050126;28;20825;-71
2023/03/23 07:46:51;;;;;;;0.30;0.30;;;;;;;16.26;72.84;100219.09;5049226;28;20017;-71
2023/03/23 07:49:17;;;;;;;0.35;0.35;;;;;;;16.55;72.48;100216.56;5050037;28;20025;-70
2023/03/23 07:51:43;;;;;;;0.20;0.20;;;;;;;16.45;72.09;100209.25;5042838;28;20519;-71
2023/03/23 07:54:08;;;;;;;0.10;0.10;;;;;;;16.84;71.12;100211.25;5049277;28;20120;-71
2023/03/23 07:56:35;;;;;;;0.28;0.28;;;;;;;16.46;71.54;100227.16;5049583;28;20527;-70
2023/03/23 07:59:02;;;;;;;0.20;0.20;;;;;;;16.64;71.41;100233.88;5040908;28;20056;-70
2023/03/23 08:01:28;;;;;;;0.30;0.30;;;;;;;16.27;72.38;100236.19;5049082;28;20045;-71
2023/03/23 08:03:56;;;;;;;0.30;0.30;;;;;;;16.80;70.77;100248.16;5049609;28;20029;-71
2023/03/23 08:06:21;;;;;;;0.28;0.28;;;;;;;16.50;72.69;100236.41;5049422;28;20056;-71
2023/03/23 08:08:47;;;;;;;0.30;0.30;;;;;;;16.42;70.42;100236.94;5049543;28;20044;-71
2023/03/23 08:11:15;;;;;;;0.10;0.10;;;;;;;16.47;70.93;100239.63;5048946;28;20120;-70
2023/03/23 08:13:41;;;;;;;0.25;0.25;;;;;;;16.63;70.51;100253.94;5049010;28;20059;-70
2023/03/23 08:16:09;;;;;;;0.20;0.20;;;;;;;16.64;70.07;100242.84;5049358;28;20020;-70
2023/03/23 08:18:34;;;;;;;0.30;0.30;;;;;;;17.16;69.19;100228.63;5037354;28;20045;-71
2023/03/23 08:21:00;;;;;;;0.20;0.20;;;;;;;17.06;68.48;100255.88;5037960;28;20438;-71
2023/03/23 08:23:25;;;;;;;0.20;0.20;;;;;;;16.69;70.18;100242.81;5048513;28;20036;-70
2023/03/23 08:25:51;;;;;;;0.20;0.20;;;;;;;16.69;70.97;100242.81;5049295;28;20020;-71
2023/03/23 08:28:16;;;;;;;0.20;0.20;;;;;;;16.84;70.53;100246.53;5049406;28;20033;-71
2023/03/23 08:30:42;;;;;;;0.20;0.20;;;;;;;17.18;69.72;100253.59;5047134;28;20033;-70
2023/03/23 08:33:10;;;;;;;0.20;0.20;;;;;;;17.39;68.11;100252.34;5045119;28;20056;-70
2023/03/23 08:35:36;;;;;;;0.20;0.20;;;;;;;16.95;69.78;100239.94;5047790;28;20041;-72
2023/03/23 08:38:01;;;;;;;0.10;0.10;;;;;;;16.67;69.84;100252.28;5048822;28;20056;-71
2023/03/23 08:40:27;;;;;;;0.20;0.20;;;;;;;16.34;69.80;100248.34;5050067;28;20025;-72
2023/03/23 08:42:53;;;;;;;0.20;0.20;;;;;;;17.11;67.99;100268.59;5044071;28;20033;-70
2023/03/23 08:45:21;;;;;;;0.20;0.20;;;;;;;16.87;69.67;100273.91;5046201;28;20033;-71
2023/03/23 08:47:51;;;;;;;0.20;0.20;;;;;;;16.62;67.77;100287.59;5048716;28;20116;-70
2023/03/23 08:50:19;;;;;;;0.20;0.20;;;;;;;17.14;68.25;100279.69;5048609;28;20143;-70
2023/03/23 08:52:45;;;;;;;0.13;0.13;;;;;;;17.05;68.35;100284.13;5048551;28;20139;-70
2023/03/23 08:55:12;;;;;;;0.10;0.10;;;;;;;17.77;65.92;100285.22;5043203;28;20493;-70
2023/03/23 08:57:38;;;;;;;0.20;0.20;;;;;;;16.87;68.35;100278.50;5043222;28;20087;-69
2023/03/23 09:00:19;;;;;;;0.20;0.20;;;;;;;17.74;65.38;100281.16;5048421;28;20053;-70
2023/03/23 09:02:47;;;;;;;0.20;0.20;;;;;;;18.13;65.30;100279.16;5047937;28;20468;-68
2023/03/23 09:05:14;;;;;;;0.20;0.20;;;;;;;17.38;65.59;100271.66;5048678;28;20041;-71
2023/03/23 09:07:41;;;;;;;0.20;0.20;;;;;;;17.82;65.37;100264.25;5025029;28;20044;-70
2023/03/23 09:10:07;;;;;;;0.30;0.30;;;;;;;17.81;65.44;100275.41;5042854;28;20070;-70
2023/03/23 09:12:33;;;;;;;0.20;0.20;;;;;;;17.31;65.95;100282.84;5047926;28;20102;-70
2023/03/23 09:14:59;;;;;;;0.20;0.20;;;;;;;17.29;67.03;100267.94;5052435;28;20453;-70
2023/03/23 09:17:25;;;;;;;0.20;0.20;;;;;;;17.33;66.63;100277.13;5052443;28;20040;-69
2023/03/23 09:19:50;;;;;;;0.20;0.20;;;;;;;17.18;66.30;100283.47;5052675;28;20445;-71
2023/03/23 09:22:19;;;;;;;0.20;0.20;;;;;;;17.06;67.33;100288.44;5044281;28;20029;-69
2023/03/23 09:24:46;;;;;;;0.20;0.20;;;;;;;17.40;66.64;100288.47;5052116;28;20125;-71
2023/03/23 09:27:11;;;;;;;0.10;0.10;;;;;;;18.12;64.49;100284.88;5049967;28;20029;-70
2023/03/23 09:29:36;;;;;;;0.20;0.20;;;;;;;17.40;66.47;100288.47;5052335;28;20488;-70
2023/03/23 09:32:02;;;;;;;0.20;0.20;;;;;;;17.60;66.01;100279.38;5046252;28;20028;-70
2023/03/23 09:34:29;;;;;;;0.20;0.20;;;;;;;18.67;62.47;100292.41;5050415;28;20071;-70
2023/03/23 09:36:54;;;;;;;0.20;0.20;;;;;;;18.79;62.81;100311.06;5052613;28;20038;-70
2023/03/23 09:39:20;;;;;;;0.20;0.20;;;;;;;18.30;64.08;100301.25;5027151;28;20052;-68
2023/03/23 09:41:58;;;;;;;0.10;0.10;;;;;;;18.46;62.47;100303.81;5051463;28;20542;-69
2023/03/23 09:44:39;;;;;;;0.20;0.20;;;;;;;18.62;62.35;100297.91;5051772;28;20051;-70
2023/03/23 09:47:15;;;;;;;0.22;0.22;;;;;;;18.11;61.30;100302.28;5051547;28;20056;-70
2023/03/23 09:49:48;;;;;;;0.20;0.20;;;;;;;17.85;59.36;100299.00;5046058;28;20020;-69
2023/03/23 09:52:16;;;;;;;0.20;0.20;;;;;;;17.31;60.07;100288.28;5052647;28;20041;-70
2023/03/23 09:54:50;;;;;;;0.20;0.20;;;;;;;17.86;59.74;100303.34;5051535;28;20040;-70
2023/03/23 09:57:27;;;;;;;0.25;0.25;;;;;;;17.68;59.96;100319.53;5050921;28;20247;-69
2023/03/23 10:00:04;;;;;;;0.20;0.20;;;;;;;17.82;58.60;100313.19;5041993;28;20026;-71
2023/03/23 10:02:42;;;;;;;0.20;0.20;;;;;;;17.56;59.37;100306.31;5044224;28;20047;-71
2023/03/23 10:05:20;;;;;;;0.17;0.17;;;;;;;17.77;57.01;100315.91;5050504;28;20040;-69
2023/03/23 10:07:45;;;;;;;0.10;0.10;;;;;;;18.15;57.76;100311.50;5044851;28;20070;-69
2023/03/23 10:10:13;;;;;;;0.20;0.20;;;;;;;18.42;56.17;100326.19;5045991;28;20037;-71
2023/03/23 10:12:39;;;;;;;0.20;0.20;;;;;;;17.98;57.46;100309.22;5051067;28;20037;-70
2023/03/23 10:15:13;;;;;;;0.10;0.10;;;;;;;18.15;57.83;100317.75;5051416;28;20120;-71
2023/03/23 10:17:57;;;;;;;0.20;0.20;;;;;;;18.26;56.72;100310.28;5046632;28;20044;-71
2023/03/23 10:20:35;;;;;;;0.10;0.10;;;;;;;18.01;58.00;100310.53;5045010;28;20041;-70
2023/03/23 10:23:09;;;;;;;0.20;0.20;;;;;;;18.65;55.61;100321.03;5045298;28;20029;-70
2023/03/23 10:25:38;;;;;;;0.10;0.10;;;;;;;18.41;56.72;100316.38;5046154;28;20102;-69
2023/03/23 10:28:10;;;;;;;0.10;0.10;;;;;;;18.65;56.80;100324.56;5051736;28;20104;-70
2023/03/23 10:30:39;;;;;;;0.10;0.10;;;;;;;18.74;56.04;100335.59;5050931;28;20059;-70
2023/03/23 10:33:23;;;;;;;0.20;0.20;;;;;;;19.17;55.17;100318.97;5050816;28;20544;-70
2023/03/23 10:36:00;;;;;;;0.20;0.20;;;;;;;19.25;54.86;100328.38;5047874;28;20520;-71
2023/03/23 10:38:34;;;;;;;0.20;0.20;;;;;;;19.53;52.47;100318.47;5047614;28;20041;-70
2023/03/23 10:41:05;;;;;;;0.13;0.10;;;;;;;19.49;52.07;100326.41;5041949;28;20049;-69
2023/03/23 10:43:31;;;;;;;0.10;0.10;;;;;;;20.01;50.46;100317.06;5050620;28;20074;-71
2023/03/23 10:46:02;;;;;;;0.10;0.10;;;;;;;19.22;51.70;100323.53;5043899;28;20056;-72
2023/03/23 10:48:33;;;;;;;0.10;0.10;;;;;;;19.51;52.25;100316.03;5050598;28;20064;-69
2023/03/23 10:51:02;;;;;;;0.10;0.10;;;;;;;18.78;51.65;100329.31;5050209;28;20079;-71
2023/03/23 10:53:47;;;;;;;0.10;0.10;;;;;;;19.03;52.10;100352.66;5044035;28;20045;-71
2023/03/23 10:56:41;;;;;;;0.10;0.10;;;;;;;18.69;51.75;100325.59;5033315;28;20057;-71
2023/03/23 10:59:20;;;;;;;0.10;0.10;;;;;;;18.75;51.67;100318.97;5040828;28;20037;-70
2023/03/23 11:01:50;;;;;;;0.10;0.10;;;;;;;18.97;51.31;100329.31;5048057;28;20045;-69
2023/03/23 11:04:17;;;;;;;0.10;0.10;;;;;;;19.47;49.72;100328.63;5046324;28;20418;-71
2023/03/23 11:06:49;;;;;;;0.10;0.10;;;;;;;19.37;50.48;100336.13;5049776;28;20124;-70
2023/03/23 11:09:36;;;;;;;0.20;0.20;;;;;;;18.94;50.67;100355.25;5043183;28;20069;-71
2023/03/23 11:12:02;;;;;;;0.15;0.15;;;;;;;19.07;49.10;100330.00;5047302;28;20029;-69
2023/03/23 11:14:30;;;;;;;0.10;0.10;;;;;;;18.68;48.68;100310.38;5042934;28;20227;-70
2023/03/23 11:17:00;;;;;;;0.15;0.15;;;;;;;19.01;48.36;100319.47;5049229;28;20492;-71
2023/03/23 11:19:26;;;;;;;0.10;0.10;;;;;;;18.86;49.29;100345.00;5048202;28;20102;-70
2023/03/23 11:21:54;;;;;;;0.10;0.10;;;;;;;18.56;49.77;100350.78;5045770;28;20033;-69
2023/03/23 11:24:26;;;;;;;0.10;0.10;;;;;;;19.17;49.30;100337.22;5049784;28;20041;-69
2023/03/23 11:26:53;;;;;;;0.20;0.20;;;;;;;18.73;48.50;100355.78;5031461;28;20032;-69
2023/03/23 11:29:24;;;;;;;0.20;0.20;;;;;;;19.16;47.89;100350.00;5050246;28;20029;-71
2023/03/23 11:31:58;;;;;;;0.13;0.13;;;;;;;19.28;48.46;100344.16;5045034;28;20148;-70
2023/03/23 11:34:47;;;;;;;0.20;0.20;;;;;;;19.48;46.86;100360.22;5046999;28;20048;-70
2023/03/23 11:37:17;;;;;;;0.20;0.20;;;;;;;19.24;45.95;100340.41;5048839;28;20128;-71